EZY38KU EGHQ-EGCC
Flight info
| Callsign | EZY38KU |
|---|---|
| Flight time | 0h 39m |
| Altitude | 31000 |
| Route | EPACE DCT ACCOP DCT MOCQO/N0405F300 P16 AXCIS |
| Aircraft | A320/M-SDE3FGHIRWY/LB1 |
Departure
| Time | 2026-04-20 16:17 |
|---|---|
| Airport | Cornwall Airport Newquay (EGHQ) |
Arrival
| Time | 2026-04-20 16:57 |
|---|---|
| Airport | Manchester Airport (EGCC) |
| Time | Latitude | Longitude | Altitude | Speed | Heading |
|---|---|---|---|---|---|
| 2026-04-20 15:56 | 50.44656 | -5.00366 | 336 ft | 0 kts | 86° |
| 2026-04-20 16:11 | 50.44656 | -5.00375 | 336 ft | 4 kts | 85° |
| 2026-04-20 16:11 | 50.44651 | -5.00415 | 330 ft | 4 kts | 53° |
| 2026-04-20 16:11 | 50.44631 | -5.00435 | 331 ft | 4 kts | 8° |
| 2026-04-20 16:12 | 50.44612 | -5.00426 | 328 ft | 4 kts | 292° |
| 2026-04-20 16:12 | 50.44603 | -5.00389 | 332 ft | 2 kts | 300° |
| 2026-04-20 16:12 | 50.44602 | -5.00387 | 332 ft | 1 kts | 300° |
| 2026-04-20 16:14 | 50.44607 | -5.00401 | 330 ft | 4 kts | 300° |
| 2026-04-20 16:14 | 50.44636 | -5.00477 | 328 ft | 12 kts | 300° |
| 2026-04-20 16:14 | 50.44688 | -5.00620 | 325 ft | 17 kts | 301° |
| 2026-04-20 16:14 | 50.44757 | -5.00791 | 322 ft | 19 kts | 302° |
| 2026-04-20 16:15 | 50.44804 | -5.00952 | 318 ft | 16 kts | 279° |
| 2026-04-20 16:15 | 50.44771 | -5.01110 | 314 ft | 16 kts | 224° |
| 2026-04-20 16:15 | 50.44699 | -5.01160 | 315 ft | 9 kts | 173° |
| 2026-04-20 16:15 | 50.44676 | -5.01126 | 316 ft | 0 kts | 118° |
| 2026-04-20 16:16 | 50.44673 | -5.01117 | 316 ft | 11 kts | 118° |
| 2026-04-20 16:17 | 50.44490 | -5.00643 | 327 ft | 86 kts | 120° |
| 2026-04-20 16:17 | 50.44086 | -4.99577 | 452 ft | 127 kts | 124° |
| 2026-04-20 16:17 | 50.43603 | -4.98373 | 976 ft | 132 kts | 121° |
| 2026-04-20 16:17 | 50.43129 | -4.97112 | 1594 ft | 135 kts | 117° |
| 2026-04-20 16:18 | 50.42698 | -4.95792 | 2212 ft | 140 kts | 102° |
| 2026-04-20 16:18 | 50.42808 | -4.94162 | 2508 ft | 169 kts | 66° |
| 2026-04-20 16:18 | 50.43597 | -4.92617 | 2889 ft | 194 kts | 50° |
| 2026-04-20 16:18 | 50.44569 | -4.90984 | 3329 ft | 215 kts | 49° |
| 2026-04-20 16:19 | 50.45634 | -4.89196 | 3936 ft | 233 kts | 49° |
| 2026-04-20 16:19 | 50.46785 | -4.87257 | 4632 ft | 249 kts | 49° |
| 2026-04-20 16:19 | 50.47962 | -4.85267 | 5564 ft | 255 kts | 49° |
| 2026-04-20 16:19 | 50.49187 | -4.83192 | 6464 ft | 263 kts | 49° |
| 2026-04-20 16:20 | 50.49318 | -4.82970 | 6555 ft | 264 kts | 49° |
| 2026-04-20 16:20 | 50.49829 | -4.82029 | 6818 ft | 271 kts | 52° |
| 2026-04-20 16:20 | 50.51054 | -4.79753 | 7731 ft | 274 kts | 49° |
| 2026-04-20 16:20 | 50.52358 | -4.77523 | 8642 ft | 279 kts | 47° |
| 2026-04-20 16:21 | 50.53704 | -4.75284 | 9537 ft | 284 kts | 46° |
| 2026-04-20 16:21 | 50.55077 | -4.73004 | 10386 ft | 291 kts | 45° |
| 2026-04-20 16:21 | 50.56018 | -4.71429 | 10642 ft | 306 kts | 46° |
| 2026-04-20 16:21 | 50.57520 | -4.68893 | 11057 ft | 325 kts | 46° |
| 2026-04-20 16:22 | 50.59072 | -4.66248 | 11781 ft | 332 kts | 46° |
| 2026-04-20 16:22 | 50.60646 | -4.63548 | 12590 ft | 336 kts | 46° |
| 2026-04-20 16:22 | 50.62233 | -4.60813 | 13403 ft | 341 kts | 45° |
| 2026-04-20 16:22 | 50.63840 | -4.58037 | 14190 ft | 345 kts | 45° |
| 2026-04-20 16:23 | 50.65463 | -4.55226 | 14890 ft | 349 kts | 45° |
| 2026-04-20 16:23 | 50.67105 | -4.52378 | 15569 ft | 354 kts | 45° |
| 2026-04-20 16:23 | 50.68770 | -4.49483 | 16233 ft | 358 kts | 45° |
| 2026-04-20 16:23 | 50.70454 | -4.46560 | 16897 ft | 363 kts | 44° |
| 2026-04-20 16:24 | 50.72169 | -4.43586 | 17572 ft | 368 kts | 44° |
| 2026-04-20 16:24 | 50.73901 | -4.40577 | 18218 ft | 373 kts | 44° |
| 2026-04-20 16:24 | 50.75652 | -4.37524 | 18819 ft | 377 kts | 44° |
| 2026-04-20 16:24 | 50.77423 | -4.34435 | 19392 ft | 382 kts | 44° |
| 2026-04-20 16:25 | 50.79216 | -4.31306 | 19973 ft | 386 kts | 43° |
| 2026-04-20 16:25 | 50.81024 | -4.28150 | 20546 ft | 389 kts | 43° |
| 2026-04-20 16:25 | 50.82853 | -4.24958 | 21121 ft | 393 kts | 43° |
| 2026-04-20 16:25 | 50.84698 | -4.21732 | 21703 ft | 397 kts | 43° |
| 2026-04-20 16:26 | 50.86534 | -4.18512 | 22279 ft | 401 kts | 43° |
| 2026-04-20 16:26 | 50.88412 | -4.15211 | 22861 ft | 405 kts | 43° |
| 2026-04-20 16:26 | 50.90304 | -4.11883 | 23433 ft | 409 kts | 43° |
| 2026-04-20 16:26 | 50.92218 | -4.08514 | 23968 ft | 412 kts | 43° |
| 2026-04-20 16:27 | 50.94143 | -4.05119 | 24444 ft | 416 kts | 43° |
| 2026-04-20 16:27 | 50.96081 | -4.01692 | 24913 ft | 419 kts | 43° |
| 2026-04-20 16:27 | 50.98028 | -3.98236 | 25377 ft | 422 kts | 43° |
| 2026-04-20 16:27 | 50.99987 | -3.94757 | 25833 ft | 424 kts | 43° |
| 2026-04-20 16:28 | 51.01963 | -3.91256 | 26273 ft | 427 kts | 43° |
| 2026-04-20 16:28 | 51.03954 | -3.87725 | 26700 ft | 430 kts | 43° |
| 2026-04-20 16:28 | 51.05955 | -3.84165 | 27121 ft | 433 kts | 43° |
| 2026-04-20 16:28 | 51.07966 | -3.80579 | 27535 ft | 436 kts | 43° |
| 2026-04-20 16:29 | 51.09987 | -3.76974 | 27945 ft | 438 kts | 43° |
| 2026-04-20 16:29 | 51.11998 | -3.73390 | 28343 ft | 441 kts | 43° |
| 2026-04-20 16:29 | 51.14074 | -3.69690 | 28737 ft | 444 kts | 42° |
| 2026-04-20 16:29 | 51.16107 | -3.66052 | 29116 ft | 447 kts | 43° |
| 2026-04-20 16:30 | 51.18179 | -3.62334 | 29494 ft | 449 kts | 42° |
| 2026-04-20 16:30 | 51.20291 | -3.58658 | 29856 ft | 449 kts | 38° |
| 2026-04-20 16:30 | 51.22677 | -3.55517 | 30222 ft | 443 kts | 27° |
| 2026-04-20 16:30 | 51.25322 | -3.53090 | 30543 ft | 436 kts | 18° |
| 2026-04-20 16:31 | 51.28144 | -3.51448 | 30865 ft | 428 kts | 8° |
| 2026-04-20 16:31 | 51.31048 | -3.50583 | 31185 ft | 422 kts | 0° |
| 2026-04-20 16:31 | 51.33968 | -3.50026 | 31485 ft | 423 kts | 1° |
| 2026-04-20 16:31 | 51.36892 | -3.49458 | 31817 ft | 424 kts | 1° |
| 2026-04-20 16:32 | 51.39811 | -3.48885 | 32243 ft | 421 kts | 1° |
| 2026-04-20 16:32 | 51.42707 | -3.48310 | 32699 ft | 418 kts | 1° |
| 2026-04-20 16:32 | 51.45596 | -3.47734 | 33120 ft | 417 kts | 1° |
| 2026-04-20 16:32 | 51.48459 | -3.47164 | 33238 ft | 412 kts | 1° |
| 2026-04-20 16:33 | 51.54146 | -3.46026 | 33248 ft | 415 kts | 1° |
| 2026-04-20 16:33 | 51.59860 | -3.44888 | 33246 ft | 418 kts | 1° |
| 2026-04-20 16:34 | 51.65635 | -3.43735 | 33248 ft | 418 kts | 1° |
| 2026-04-20 16:34 | 51.71401 | -3.42583 | 33266 ft | 417 kts | 1° |
| 2026-04-20 16:35 | 51.77171 | -3.41428 | 33269 ft | 417 kts | 1° |
| 2026-04-20 16:35 | 51.82927 | -3.40273 | 33270 ft | 416 kts | 1° |
| 2026-04-20 16:36 | 51.88680 | -3.39114 | 33269 ft | 416 kts | 1° |
| 2026-04-20 16:36 | 51.94416 | -3.38020 | 33257 ft | 414 kts | 359° |
| 2026-04-20 16:37 | 52.00142 | -3.37503 | 33257 ft | 411 kts | 356° |
| 2026-04-20 16:37 | 52.03014 | -3.37374 | 32852 ft | 413 kts | 356° |
| 2026-04-20 16:37 | 52.05884 | -3.37251 | 32231 ft | 412 kts | 356° |
| 2026-04-20 16:38 | 52.08716 | -3.37106 | 31761 ft | 413 kts | 356° |
| 2026-04-20 16:38 | 52.11597 | -3.36931 | 31271 ft | 414 kts | 356° |
| 2026-04-20 16:38 | 52.14477 | -3.36728 | 30783 ft | 415 kts | 356° |
| 2026-04-20 16:38 | 52.17371 | -3.36513 | 30309 ft | 417 kts | 356° |
| 2026-04-20 16:39 | 52.18991 | -3.36390 | 29995 ft | 417 kts | 356° |
| 2026-04-20 16:39 | 52.20530 | -3.36263 | 29764 ft | 419 kts | 356° |
| 2026-04-20 16:39 | 52.23445 | -3.36035 | 29276 ft | 420 kts | 356° |
| 2026-04-20 16:39 | 52.26374 | -3.35821 | 28818 ft | 421 kts | 356° |
| 2026-04-20 16:40 | 52.29308 | -3.35616 | 28352 ft | 423 kts | 356° |
| 2026-04-20 16:40 | 52.32254 | -3.35410 | 27879 ft | 425 kts | 356° |
| 2026-04-20 16:40 | 52.35214 | -3.34863 | 27551 ft | 433 kts | 4° |
| 2026-04-20 16:40 | 52.38176 | -3.33927 | 27288 ft | 434 kts | 4° |
| 2026-04-20 16:41 | 52.41105 | -3.33000 | 27036 ft | 435 kts | 4° |
| 2026-04-20 16:41 | 52.44080 | -3.32053 | 26636 ft | 433 kts | 4° |
| 2026-04-20 16:41 | 52.47012 | -3.31109 | 25896 ft | 426 kts | 5° |
| 2026-04-20 16:41 | 52.49907 | -3.30171 | 25162 ft | 421 kts | 5° |
| 2026-04-20 16:42 | 52.52771 | -3.29244 | 24443 ft | 417 kts | 5° |
| 2026-04-20 16:42 | 52.55607 | -3.28328 | 23725 ft | 413 kts | 5° |
| 2026-04-20 16:42 | 52.58418 | -3.27420 | 22878 ft | 411 kts | 5° |
| 2026-04-20 16:42 | 52.61218 | -3.26517 | 22063 ft | 408 kts | 6° |
| 2026-04-20 16:43 | 52.64002 | -3.25634 | 21276 ft | 405 kts | 4° |
| 2026-04-20 16:43 | 52.66778 | -3.25054 | 20504 ft | 401 kts | 2° |
| 2026-04-20 16:43 | 52.69501 | -3.24579 | 19683 ft | 385 kts | 2° |
| 2026-04-20 16:43 | 52.72123 | -3.24172 | 18939 ft | 371 kts | 2° |
| 2026-04-20 16:44 | 52.74655 | -3.23800 | 18177 ft | 359 kts | 2° |
| 2026-04-20 16:44 | 52.77075 | -3.23445 | 17367 ft | 349 kts | 2° |
| 2026-04-20 16:44 | 52.79432 | -3.22716 | 16572 ft | 344 kts | 18° |
| 2026-04-20 16:44 | 52.81575 | -3.20996 | 15796 ft | 339 kts | 25° |
| 2026-04-20 16:45 | 52.83629 | -3.19159 | 15036 ft | 333 kts | 25° |
| 2026-04-20 16:45 | 52.85646 | -3.17343 | 14297 ft | 327 kts | 25° |
| 2026-04-20 16:45 | 52.87630 | -3.15564 | 13510 ft | 322 kts | 25° |
| 2026-04-20 16:45 | 52.89584 | -3.13819 | 12710 ft | 316 kts | 25° |
| 2026-04-20 16:46 | 52.91509 | -3.12109 | 11965 ft | 310 kts | 25° |
| 2026-04-20 16:46 | 52.93415 | -3.10432 | 11437 ft | 311 kts | 25° |
| 2026-04-20 16:46 | 52.95342 | -3.08748 | 10793 ft | 315 kts | 25° |
| 2026-04-20 16:46 | 52.97268 | -3.07078 | 10180 ft | 317 kts | 25° |
| 2026-04-20 16:47 | 52.99218 | -3.05403 | 9501 ft | 311 kts | 25° |
| 2026-04-20 16:47 | 53.01107 | -3.03791 | 8844 ft | 300 kts | 25° |
| 2026-04-20 16:47 | 53.02939 | -3.02230 | 8187 ft | 291 kts | 25° |
| 2026-04-20 16:47 | 53.04716 | -3.00722 | 7555 ft | 283 kts | 25° |
| 2026-04-20 16:48 | 53.06452 | -2.99250 | 6926 ft | 277 kts | 25° |
| 2026-04-20 16:48 | 53.08150 | -2.97816 | 6393 ft | 268 kts | 25° |
| 2026-04-20 16:48 | 53.09798 | -2.96432 | 6262 ft | 263 kts | 25° |
| 2026-04-20 16:48 | 53.11429 | -2.95063 | 6272 ft | 263 kts | 25° |
| 2026-04-20 16:49 | 53.13061 | -2.93695 | 6275 ft | 263 kts | 25° |
| 2026-04-20 16:49 | 53.14606 | -2.92069 | 6268 ft | 264 kts | 43° |
| 2026-04-20 16:49 | 53.15566 | -2.89459 | 6275 ft | 269 kts | 71° |
| 2026-04-20 16:49 | 53.15840 | -2.86365 | 6275 ft | 272 kts | 84° |
| 2026-04-20 16:50 | 53.15953 | -2.83217 | 6271 ft | 272 kts | 85° |
| 2026-04-20 16:50 | 53.16050 | -2.80067 | 6274 ft | 273 kts | 84° |
| 2026-04-20 16:50 | 53.16144 | -2.76958 | 6275 ft | 272 kts | 84° |
| 2026-04-20 16:50 | 53.16238 | -2.73768 | 6272 ft | 272 kts | 85° |
| 2026-04-20 16:51 | 53.16326 | -2.70618 | 6275 ft | 272 kts | 85° |
| 2026-04-20 16:51 | 53.16415 | -2.67486 | 6102 ft | 270 kts | 84° |
| 2026-04-20 16:51 | 53.16942 | -2.64490 | 5399 ft | 273 kts | 55° |
| 2026-04-20 16:51 | 53.18098 | -2.62007 | 4976 ft | 270 kts | 49° |
| 2026-04-20 16:52 | 53.19283 | -2.59622 | 4593 ft | 265 kts | 49° |
| 2026-04-20 16:52 | 53.20421 | -2.57310 | 4231 ft | 255 kts | 49° |
| 2026-04-20 16:52 | 53.21520 | -2.55059 | 3886 ft | 240 kts | 49° |
| 2026-04-20 16:52 | 53.22533 | -2.52986 | 3572 ft | 227 kts | 49° |
| 2026-04-20 16:53 | 53.23504 | -2.50998 | 3271 ft | 216 kts | 49° |
| 2026-04-20 16:53 | 53.24430 | -2.49100 | 2982 ft | 206 kts | 48° |
| 2026-04-20 16:53 | 53.25319 | -2.47278 | 2701 ft | 199 kts | 48° |
| 2026-04-20 16:53 | 53.26176 | -2.45518 | 2464 ft | 193 kts | 47° |
| 2026-04-20 16:54 | 53.27016 | -2.43796 | 2172 ft | 189 kts | 48° |
| 2026-04-20 16:54 | 53.27823 | -2.42135 | 1904 ft | 178 kts | 47° |
| 2026-04-20 16:54 | 53.28565 | -2.40606 | 1671 ft | 162 kts | 47° |
| 2026-04-20 16:54 | 53.29247 | -2.39203 | 1454 ft | 150 kts | 47° |
| 2026-04-20 16:55 | 53.29886 | -2.37894 | 1280 ft | 141 kts | 43° |
| 2026-04-20 16:55 | 53.30517 | -2.36643 | 1047 ft | 140 kts | 46° |
| 2026-04-20 16:55 | 53.31111 | -2.35402 | 888 ft | 138 kts | 50° |
| 2026-04-20 16:55 | 53.31697 | -2.34136 | 703 ft | 137 kts | 49° |
| 2026-04-20 16:56 | 53.32308 | -2.32916 | 563 ft | 137 kts | 50° |
| 2026-04-20 16:56 | 53.32899 | -2.31680 | 368 ft | 135 kts | 50° |
| 2026-04-20 16:56 | 53.33490 | -2.30474 | 237 ft | 129 kts | 52° |
| 2026-04-20 16:56 | 53.33960 | -2.29488 | 232 ft | 84 kts | 51° |
| 2026-04-20 16:57 | 53.34225 | -2.28942 | 231 ft | 44 kts | 51° |
| 2026-04-20 16:57 | 53.34424 | -2.28600 | 231 ft | 39 kts | 31° |
| 2026-04-20 16:57 | 53.34642 | -2.28449 | 233 ft | 22 kts | 22° |
| 2026-04-20 16:57 | 53.34764 | -2.28298 | 233 ft | 23 kts | 52° |
| 2026-04-20 16:58 | 53.34866 | -2.28085 | 233 ft | 25 kts | 51° |
| 2026-04-20 16:58 | 53.34975 | -2.27855 | 233 ft | 26 kts | 50° |
| 2026-04-20 16:58 | 53.35092 | -2.27613 | 233 ft | 27 kts | 52° |
| 2026-04-20 16:58 | 53.35212 | -2.27362 | 233 ft | 28 kts | 50° |
| 2026-04-20 16:59 | 53.35305 | -2.27200 | 233 ft | 10 kts | 27° |
| 2026-04-20 16:59 | 53.35335 | -2.27189 | 233 ft | 0 kts | 3° |
| 2026-04-20 17:01 | 53.35336 | -2.27189 | 233 ft | 1 kts | 3° |
| 2026-04-20 17:01 | 53.35385 | -2.27209 | 234 ft | 13 kts | 332° |
| 2026-04-20 17:02 | 53.35472 | -2.27326 | 240 ft | 17 kts | 322° |
| 2026-04-20 17:02 | 53.35528 | -2.27400 | 239 ft | 4 kts | 321° |
| 2026-04-20 17:02 | 53.35531 | -2.27404 | 238 ft | 0 kts | 321° |
| 2026-04-20 17:02 | 53.35539 | -2.27414 | 235 ft | 3 kts | 321° |
| 2026-04-20 17:03 | 53.35559 | -2.27441 | 234 ft | 4 kts | 321° |
| 2026-04-20 17:03 | 53.35584 | -2.27475 | 233 ft | 5 kts | 321° |
| 2026-04-20 17:03 | 53.35609 | -2.27509 | 233 ft | 5 kts | 320° |
| 2026-04-20 17:03 | 53.35611 | -2.27512 | 233 ft | 0 kts | 320° |
| 2026-04-20 17:18 | 53.35646 | -2.27560 | 233 ft | 14 kts | 320° |
| 2026-04-20 17:18 | 53.35741 | -2.27648 | 234 ft | 16 kts | 336° |
| 2026-04-20 17:19 | 53.35822 | -2.27754 | 233 ft | 14 kts | 308° |
| 2026-04-20 17:19 | 53.35895 | -2.27851 | 234 ft | 13 kts | 350° |
| 2026-04-20 17:19 | 53.35981 | -2.27874 | 235 ft | 13 kts | 324° |
| 2026-04-20 17:19 | 53.36064 | -2.28018 | 233 ft | 21 kts | 316° |
| 2026-04-20 17:20 | 53.36173 | -2.28207 | 233 ft | 23 kts | 313° |
| 2026-04-20 17:20 | 53.36288 | -2.28409 | 233 ft | 21 kts | 314° |
| 2026-04-20 17:20 | 53.36350 | -2.28507 | 233 ft | 14 kts | 333° |
| 2026-04-20 17:20 | 53.36418 | -2.28461 | 233 ft | 12 kts | 41° |
| 2026-04-20 17:21 | 53.36482 | -2.28388 | 233 ft | 9 kts | 357° |
| 2026-04-20 17:21 | 53.36524 | -2.28445 | 233 ft | 7 kts | 314° |
| 2026-04-20 17:21 | 53.36537 | -2.28467 | 233 ft | 0 kts | 314° |